METAR Data
IDs: Format: Raw Decoded Include TAF

Data at: 0727 UTC 11 Dec 2018

PAGK 110653Z AUTO 15004KT 10SM OVC070 M09/M11 A2859 RMK AO2 SLP720 T10891106 TSNO
PAGK 110553Z AUTO 14005KT 10SM OVC075 M09/M12 A2863 RMK AO2 SLP735 T10941117 11094 21111 56048 TSNO
PAGK 110453Z AUTO 15005KT 10SM BKN055 OVC075 M10/M12 A2868 RMK AO2 SLP751 T11001117 TSNO
PAGK 110353Z AUTO 00000KT 10SM OVC075 M11/M12 A2872 RMK AO2 SLP765 T11061122 TSNO
PAGK 110253Z AUTO 00000KT 10SM BKN080 OVC090 M11/M12 A2878 RMK AO2 SLP786 T11061122 56045 TSNO
PAGK 110153Z AUTO 31003KT 10SM FEW065 SCT085 OVC120 M10/M12 A2883 RMK AO2 SLP801 T11001122 TSNO
PAGK 110053Z AUTO 00000KT 10SM OVC075 M11/M12 A2887 RMK AO2 SLP818 T11061122 TSNO
PAGK 102353Z AUTO 00000KT 10SM OVC075 M11/M12 A2892 RMK AO2 SLP835 T11061122 11094 21128 58032 TSNO
PAGK 102253Z AUTO 28003KT 10SM FEW080 M11/M12 A2896 RMK AO2 SLP850 T11061122 TSNO
PAGK 102153Z AUTO 24004KT 10SM CLR M11/M13 A2899 RMK AO2 SLP863 T11111128 TSNO
PAGK 102053Z AUTO 00000KT 10SM OVC100 M10/M12 A2902 RMK AO2 SLP872 T11001117 58018 TSNO
PAGK 101953Z AUTO 00000KT 10SM BKN095 M13/M14 A2904 RMK SLP882 T11281139 TSNO VIA AUTODIAL
PAGK 101853Z AUTO 00000KT 10SM BKN080 M12/M13 A2906 RMK AO2 SLP888 T11171128 TSNO
PAGK 101753Z AUTO 00000KT 10SM SCT060 BKN110 M09/M12 A2907 RMK AO2 SLP890 T10941122 11089 21117 56013 TSNO
PAGK 101653Z AUTO 02003KT 10SM OVC065 M09/M12 A2908 RMK AO2 SLP893 T10891117 TSNO
PAGK 101553Z AUTO 01007KT 10SM OVC080 M09/M12 A2910 RMK AO2 SLP897 T10941117 TSNO $
PAGK 101453Z AUTO 35004KT 10SM OVC075 M09/M12 A2911 RMK AO2 SLP900 T10941122 58018 TSNO $
PAGK 101353Z AUTO 33005KT 10SM OVC048 M09/M12 A2914 RMK AO2 SLP908 T10941117 TSNO $
PAGK 101253Z AUTO 34005KT 10SM BKN100 M11/M12 A2916 RMK AO2 SLP911 T11061122 TSNO $
PAGK 101153Z AUTO 00000KT 10SM CLR M11/M13 A2917 RMK AO2 SLP913 I6000 T11111128 11106 21150 56005 TSNO $
PAGK 101053Z AUTO VRB05KT 10SM OVC100 M11/M13 A2917 RMK AO2 SLP913 T11111128 TSNO $
PAGK 100953Z AUTO 33003KT 10SM OVC085 M12/M14 A2918 RMK AO2 SLP916 T11221139 TSNO $
PAGK 100853Z AUTO 00000KT 10SM BKN100 BKN120 M13/M15 A2918 RMK AO2 SLP919 I3000 T11331150 400331150 53004 TSNO $
PAGK 100753Z AUTO 29003KT 10SM CLR M13/M14 A2917 RMK AO2 SLP918 T11331144 TSNO $
PAGK 100653Z AUTO 29003KT 10SM CLR M13/M14 A2917 RMK AO2 SLP915 I1000 T11331144 TSNO $
PAGK 100553Z AUTO 00000KT 10SM CLR M13/M14 A2917 RMK SLP917 I1000 I6000 T11281144 11022 21144 51016 TSNO $ VIA AUTODIAL
PAGK 100453Z AUTO VRB03KT 10SM CLR M13/M14 A2915 RMK AO2 SLP910 T11331144 TSNO $
PAGK 100353Z AUTO 31003KT 10SM CLR M12/M13 A2914 RMK AO2 SLP903 T11171128 TSNO $
PAGK 100253Z AUTO 00000KT 10SM CLR M09/M12 A2912 RMK AO2 SLP894 T10941117 51014 TSNO $
PAGK 100153Z AUTO 24005KT 10SM CLR M07/M11 A2911 RMK AO2 SLP886 T10721106 TSNO $
PAGK 100053Z AUTO 25006KT 10SM CLR M04/M09 A2910 RMK AO2 SLP880 T10441089 TSNO $
PAGK 092353Z AUTO 20009KT 10SM CLR M02/M08 A2908 RMK AO2 SLP871 I6000 T10221078 11011 21056 51015 TSNO $
PAGK 092253Z AUTO 19009KT 10SM SCT070 M01/M07 A2907 RMK AO2 SLP866 T10111072 TSNO $
PAGK 092153Z AUTO 20007KT 10SM CLR M02/M07 A2905 RMK AO2 SLP859 T10171072 TSNO $
PAGK 092053Z AUTO 19008KT 10SM CLR M01/M06 A2903 RMK AO2 SLP853 I3000 T10111061 51008 TSNO $
PAGK 091953Z AUTO 00000KT 10SM CLR M04/M05 A2903 RMK AO2 SLP852 T10391050 TSNO $